createdAt,value
2019-04-14T00:01:45.729Z,18.83
2019-04-14T00:12:04.339Z,20.93
2019-04-14T00:17:07.216Z,21.67
2019-04-14T00:22:11.708Z,21.13
2019-04-14T00:27:17.167Z,20.17
2019-04-14T00:37:27.352Z,22.47
2019-04-14T00:42:32.047Z,25.63
2019-04-14T00:47:48.404Z,22.87
2019-04-14T00:52:42.269Z,23.13
2019-04-14T00:57:46.509Z,23.13
2019-04-14T01:02:51.572Z,25.30
2019-04-14T01:07:56.578Z,26.90
2019-04-14T01:13:00.928Z,25.17
2019-04-14T01:18:05.754Z,25.40
2019-04-14T01:23:10.620Z,25.17
2019-04-14T01:28:15.751Z,25.20
2019-04-14T01:33:20.589Z,22.10
2019-04-14T01:38:25.550Z,22.87
2019-04-14T01:43:30.029Z,23.00
2019-04-14T01:48:34.669Z,25.37
2019-04-14T01:53:40.015Z,26.10
2019-04-14T01:58:44.689Z,24.87
2019-04-14T02:03:49.888Z,24.47
2019-04-14T02:08:54.691Z,27.03
2019-04-14T02:13:59.378Z,23.37
2019-04-14T02:19:04.603Z,24.10
2019-04-14T02:24:09.248Z,22.27
2019-04-14T02:29:14.402Z,25.97
2019-04-14T02:55:04.336Z,19.07
2019-04-14T03:00:19.808Z,18.73
2019-04-14T03:05:17.614Z,22.63
2019-04-14T03:10:40.519Z,20.57
2019-04-14T03:20:39.548Z,21.63
2019-04-14T03:25:45.392Z,26.13
2019-04-14T03:36:30.348Z,22.10
2019-04-14T03:41:08.892Z,23.10
2019-04-14T03:51:21.208Z,23.33
2019-04-14T03:56:16.436Z,18.67
2019-04-14T04:01:19.865Z,22.30
2019-04-14T04:06:24.659Z,22.43
2019-04-14T04:11:30.046Z,19.83
2019-04-14T04:16:35.433Z,16.43
2019-04-14T04:21:40.146Z,18.73
2019-04-14T04:26:45.076Z,22.30
2019-04-14T04:31:50.397Z,20.40
2019-04-14T04:36:55.318Z,21.17
2019-04-14T04:42:00.392Z,20.03
2019-04-14T04:47:05.715Z,21.60
2019-04-14T04:52:12.665Z,19.60
2019-04-14T04:57:15.926Z,22.30
2019-04-14T05:02:20.042Z,22.00
2019-04-14T05:07:25.243Z,18.40
2019-04-14T05:12:30.615Z,19.23
2019-04-14T05:17:35.017Z,19.23
2019-04-14T05:22:39.776Z,16.70
2019-04-14T05:27:45.181Z,21.67
2019-04-14T05:32:50.147Z,17.93
2019-04-14T05:37:55.099Z,20.47
2019-04-14T05:43:00.238Z,21.10
2019-04-14T05:48:05.347Z,23.43
2019-04-14T05:53:10.985Z,22.47
2019-04-14T05:58:16.405Z,21.87
2019-04-14T06:03:21.316Z,20.97
2019-04-14T06:08:26.694Z,21.70
2019-04-14T06:13:30.874Z,24.77
2019-04-14T06:18:35.039Z,25.20
2019-04-14T06:23:39.209Z,21.10
2019-04-14T06:28:43.509Z,20.63
2019-04-14T06:33:48.807Z,22.10
2019-04-14T06:38:53.092Z,20.20
2019-04-14T06:43:57.169Z,23.17
2019-04-14T06:49:01.447Z,21.83
2019-04-14T06:54:05.750Z,21.43
2019-04-14T06:59:13.095Z,22.47
2019-04-14T07:04:17.426Z,23.17
2019-04-14T07:09:21.747Z,24.53
2019-04-14T07:14:25.906Z,21.40
2019-04-14T07:19:30.384Z,22.93
2019-04-14T07:24:34.862Z,23.87
2019-04-14T07:29:39.406Z,24.17
2019-04-14T07:34:43.675Z,24.67
2019-04-14T07:39:48.131Z,25.17
2019-04-14T07:44:52.329Z,23.90
2019-04-14T07:49:56.724Z,27.43
2019-04-14T07:55:00.907Z,25.40
2019-04-14T08:00:06.101Z,26.83
2019-04-14T08:05:10.576Z,27.17
2019-04-14T08:10:15.176Z,27.40
2019-04-14T08:15:19.922Z,28.60
2019-04-14T08:20:27.769Z,28.40
2019-04-14T08:25:30.495Z,25.57
2019-04-14T08:30:35.161Z,28.63
2019-04-14T08:35:41.159Z,24.70
2019-04-14T08:40:45.548Z,26.03
2019-04-14T08:45:49.976Z,24.97
2019-04-14T08:50:54.275Z,24.40
2019-04-14T08:55:58.762Z,26.07
2019-04-14T09:01:03.196Z,25.63
2019-04-14T09:06:07.478Z,24.37
2019-04-14T09:11:12.021Z,24.93
2019-04-14T09:16:16.660Z,26.70
2019-04-14T09:21:21.035Z,24.30
2019-04-14T09:26:25.287Z,24.10
2019-04-14T09:31:29.878Z,23.07
2019-04-14T09:36:34.248Z,22.37
2019-04-14T09:41:38.917Z,21.00
2019-04-14T09:46:43.572Z,19.40
2019-04-14T09:51:48.149Z,20.90
2019-04-14T09:56:52.628Z,20.27
2019-04-14T10:01:57.203Z,19.67
2019-04-14T10:07:02.933Z,21.00
2019-04-14T10:12:07.488Z,20.80
2019-04-14T10:17:11.863Z,20.83
2019-04-14T10:22:16.175Z,19.67
2019-04-14T10:27:20.469Z,19.47
2019-04-14T10:32:24.978Z,20.23
2019-04-14T10:37:29.222Z,21.80
2019-04-14T10:42:33.571Z,21.70
2019-04-14T10:47:37.855Z,20.37
2019-04-14T10:52:42.112Z,20.90
2019-04-14T10:57:48.791Z,19.63
2019-04-14T11:02:53.269Z,20.70
2019-04-14T11:07:57.611Z,22.13
2019-04-14T11:13:02.891Z,19.47
2019-04-14T11:18:07.447Z,22.87
2019-04-14T11:23:11.829Z,22.13
2019-04-14T11:28:16.077Z,22.63
2019-04-14T11:33:20.356Z,21.80
2019-04-14T11:38:24.640Z,22.33
2019-04-14T11:43:28.992Z,20.07
2019-04-14T11:48:33.590Z,20.30
2019-04-14T11:53:37.984Z,20.23
2019-04-14T11:58:42.732Z,17.60
2019-04-14T12:03:49.700Z,18.23
2019-04-14T12:08:54.309Z,17.43
2019-04-14T12:14:00.409Z,18.77
2019-04-14T12:19:05.071Z,17.67
2019-04-14T12:24:09.211Z,16.33
2019-04-14T12:29:14.130Z,18.63
2019-04-14T12:34:19.029Z,18.97
2019-04-14T12:39:24.394Z,18.07
2019-04-14T12:44:29.609Z,17.50
2019-04-14T12:49:34.075Z,20.20
2019-04-14T12:54:38.702Z,17.40
2019-04-14T12:59:43.115Z,17.07
2019-04-14T13:04:47.453Z,15.27
2019-04-14T13:09:51.871Z,15.23
2019-04-14T13:14:57.668Z,16.53
2019-04-14T13:20:02.053Z,17.87
2019-04-14T13:25:06.749Z,16.10
2019-04-14T13:30:11.312Z,17.37
2019-04-14T13:35:15.848Z,17.47
2019-04-14T13:40:20.296Z,18.07
2019-04-14T13:45:24.550Z,18.90
2019-04-14T13:50:29.452Z,19.27
2019-04-14T13:55:33.710Z,19.03
2019-04-14T14:00:38.014Z,21.13
2019-04-14T14:05:43.831Z,19.33
2019-04-14T14:10:48.147Z,22.93
2019-04-14T14:15:52.727Z,19.10
2019-04-14T14:20:57.358Z,20.47
2019-04-14T14:26:01.558Z,21.80
2019-04-14T14:31:05.944Z,21.50
2019-04-14T14:36:10.696Z,21.23
2019-04-14T14:41:15.436Z,23.13
2019-04-14T14:46:19.755Z,22.97
2019-04-14T14:51:24.065Z,21.27
2019-04-14T14:56:28.548Z,21.43
2019-04-14T15:01:34.106Z,19.10
2019-04-14T15:06:38.471Z,20.97
2019-04-14T15:11:42.865Z,20.07
2019-04-14T15:16:47.380Z,21.20
2019-04-14T15:21:59.702Z,20.90
2019-04-14T15:27:04.371Z,21.87
2019-04-14T15:32:08.764Z,20.83
2019-04-14T15:37:12.982Z,24.13
2019-04-14T15:42:17.456Z,19.67
2019-04-14T15:47:21.871Z,22.80
2019-04-14T15:52:26.457Z,19.07
2019-04-14T15:57:30.743Z,20.63
2019-04-14T16:02:35.070Z,21.27
2019-04-14T16:07:39.604Z,17.73
2019-04-14T16:12:44.293Z,16.57
2019-04-14T16:17:49.536Z,17.20
2019-04-14T16:22:53.844Z,14.63
2019-04-14T16:27:58.251Z,14.10
2019-04-14T16:33:02.464Z,12.37
2019-04-14T16:38:06.902Z,12.60
2019-04-14T16:43:12.626Z,11.07
2019-04-14T16:48:17.255Z,11.10
2019-04-14T16:53:22.651Z,11.97
2019-04-14T16:58:26.912Z,12.40
2019-04-14T17:03:31.522Z,11.20
2019-04-14T17:08:35.802Z,11.60
2019-04-14T17:13:40.447Z,11.70
2019-04-14T17:18:45.408Z,10.40
2019-04-14T17:23:49.662Z,10.50
2019-04-14T17:28:54.040Z,11.67
2019-04-14T17:33:58.482Z,11.20
2019-04-14T17:39:02.760Z,10.80
2019-04-14T17:44:07.045Z,10.43
2019-04-14T17:54:29.217Z,9.93
2019-04-14T18:04:46.021Z,9.17
2019-04-14T18:09:50.310Z,8.50
2019-04-14T18:14:54.784Z,9.60
2019-04-14T18:19:59.062Z,9.60
2019-04-14T18:25:04.397Z,11.13
2019-04-14T18:30:08.744Z,8.67
2019-04-14T18:35:13.002Z,8.53
2019-04-14T18:40:17.202Z,9.50
2019-04-14T18:45:21.538Z,8.77
2019-04-14T18:50:25.883Z,10.20
2019-04-14T18:55:33.284Z,8.77
2019-04-14T19:00:37.383Z,9.07
2019-04-14T19:05:43.836Z,9.40
2019-04-14T19:10:48.043Z,9.80
2019-04-14T19:15:52.361Z,8.33
2019-04-14T19:20:56.682Z,9.37
2019-04-14T19:26:00.966Z,9.90
2019-04-14T19:31:05.275Z,10.60
2019-04-14T19:36:09.723Z,11.07
2019-04-14T19:41:14.028Z,10.83
2019-04-14T19:46:18.603Z,11.43
2019-04-14T19:51:22.849Z,13.30
2019-04-14T19:56:27.568Z,14.97
2019-04-14T20:01:32.262Z,15.53
2019-04-14T20:06:36.518Z,16.73
2019-04-14T20:11:41.422Z,16.07
2019-04-14T20:16:45.642Z,14.20
2019-04-14T20:21:49.884Z,14.37
2019-04-14T20:26:54.103Z,15.00
2019-04-14T20:32:00.542Z,17.77
2019-04-14T20:37:04.943Z,17.30
2019-04-14T20:42:09.282Z,16.60
2019-04-14T20:47:13.784Z,18.53
2019-04-14T20:52:18.125Z,18.17
2019-04-14T20:57:22.567Z,19.17
2019-04-14T21:02:27.316Z,19.77
2019-04-14T21:07:31.803Z,18.93
2019-04-14T21:12:36.336Z,15.00
2019-04-14T21:17:40.722Z,19.50
2019-04-14T21:22:45.305Z,19.37
2019-04-14T21:27:49.786Z,18.57
2019-04-14T21:32:54.336Z,19.27
2019-04-14T21:37:58.865Z,18.43
2019-04-14T21:43:03.103Z,21.67
2019-04-14T21:48:07.649Z,20.00
2019-04-14T21:53:12.102Z,20.73
2019-04-14T21:58:16.335Z,18.77
2019-04-14T22:03:20.726Z,19.03
2019-04-14T22:08:25.533Z,18.10
2019-04-14T22:13:30.006Z,17.63
2019-04-14T22:18:34.346Z,18.43
2019-04-14T22:23:39.962Z,17.43
2019-04-14T22:28:44.403Z,20.53
2019-04-14T22:33:49.324Z,16.20
2019-04-14T22:38:53.604Z,18.07
2019-04-14T22:43:57.843Z,19.17
2019-04-14T22:49:02.023Z,18.63
2019-04-14T22:54:06.402Z,22.23
2019-04-14T22:59:10.743Z,22.73
2019-04-14T23:04:14.919Z,21.43
2019-04-14T23:09:19.104Z,23.50
2019-04-14T23:14:23.524Z,22.70
2019-04-14T23:19:27.699Z,23.30
2019-04-14T23:24:32.042Z,25.73
2019-04-14T23:29:36.337Z,25.83
2019-04-14T23:34:40.668Z,26.83
2019-04-14T23:39:44.960Z,25.13
2019-04-14T23:44:49.210Z,22.37
2019-04-14T23:49:53.387Z,22.97
2019-04-14T23:54:57.670Z,19.77
